Airfield :
LOGIN :

Register | Disclaimer

   EN    FR    IT 

 










Legend :    VFR   Marginal VFR   IFR   Intensive IFR   Very Intensive IFR
Visi :
Ceiling :
>= 8 km
>= 3000ft
5 to 8 km
1000 to 3000 ft
1500m to 5 km
500 to 1000 ft
800 to 1500m
200 to 500 ft
< 800m
< 200 ft
Symbols :   Thunderstorms  Fog  Heavy snow  Heavy precipitations  Wind > 20 kt
SIGMETs :     Misc.  Thunderstorms  Icing  Turbulence  Mountain Waves  Volcanic Ashes






- Airport Elevation : 776 ft
- IATA code : RMS


ETAR - Ramstein Air Base

CURRENT METAR :
  • 170256Z 24007KT 9999 FEW020 BKN042 BKN049 09/09 A2965 RMK AO2A SLP042 60000 T00940094 53001 FZRANO $

EXPIRED METARs :
  • 170156Z 24006KT 9999 BKN022 OVC029 10/10 A2965 RMK AO2A RAB30E35 CIG 020V025 CIG 019 RWY08 SLP041 P0000 T00960096 FZRANO $
  • 170135Z 23008KT 9999 SCT020 BKN026 BKN036 10/10 A2965 RMK AO2A RAB30E35 CIG 023 RWY08 SLP042 FZRANO $
  • 170126Z 23008KT 9999 FEW018 BKN024 OVC034 10/10 A2964 RMK AO2A CIG 024V033 CIG 020 RWY08 SLP039 FZRANO $
  • 170111Z 22006KT 9999 FEW018 SCT023 BKN031 OVC046 10/10 A2964 RMK AO2A SLP040 FZRANO $
  • 170056Z 23009KT 9999 FEW018 BKN023 BKN035 OVC046 10/10 A2964 RMK AO2A CIG 020 RWY08 SLP040 T00990099 FZRANO $

TAF TAF ETAR
Valid from the 17 at 02:00 until the 18 at 08:00 UTC


170200Z 1702/1808 23012KT 8000 -SHRA BKN020 610406 510004 QNH2963INS
TEMPO 1702/1709 23010G20KT BKN015
BECMG 1708/1709 24015G30KT 9000 -SHRA VCTS SCT010 BKN020CB QNH2971INS
BECMG 1717/1718 24010G15KT 8000 -SHRA VCTS SCT020 BKN040CB QNH2979INS
TEMPO 1719/1722 6000 -TSRA BKN020CB TX14/1715Z TN07/1802Z



MET'MAP, your aeronautical weather chart ! - Copyright ORBIFLY December 2007 - Disclaimer

ORBIFLY MET'MAP TEAM :

Programming & Development : Alexandra Zaïnal
Concept & original design : Baudouin d'Aumeries
Assistance for programming : Marc-Olivier Méhu
Technical & hardware support : Manuel Goepfert

Contact : metmap@orbifly.com




SOURCES & CREDITS :

   NOAA